sensor_id;sensor_type;location;lat;lon;timestamp;temperature;humidity
38514;DHT22;24282;48.400;10.808;2024-02-23T00:00:51;9.40;80.00
38514;DHT22;24282;48.400;10.808;2024-02-23T00:03:16;9.30;80.10
38514;DHT22;24282;48.400;10.808;2024-02-23T00:05:42;9.30;80.10
38514;DHT22;24282;48.400;10.808;2024-02-23T00:08:08;9.20;80.10
38514;DHT22;24282;48.400;10.808;2024-02-23T00:10:34;9.20;79.70
38514;DHT22;24282;48.400;10.808;2024-02-23T00:13:01;9.10;80.30
38514;DHT22;24282;48.400;10.808;2024-02-23T00:15:26;9.10;80.20
38514;DHT22;24282;48.400;10.808;2024-02-23T00:17:52;9.10;79.40
38514;DHT22;24282;48.400;10.808;2024-02-23T00:20:18;9.10;79.00
38514;DHT22;24282;48.400;10.808;2024-02-23T00:22:44;9.10;78.40
38514;DHT22;24282;48.400;10.808;2024-02-23T00:25:09;9.00;78.80
38514;DHT22;24282;48.400;10.808;2024-02-23T00:27:35;9.00;78.40
38514;DHT22;24282;48.400;10.808;2024-02-23T00:30:01;8.90;78.80
38514;DHT22;24282;48.400;10.808;2024-02-23T00:32:26;8.90;78.60
38514;DHT22;24282;48.400;10.808;2024-02-23T00:34:52;8.80;79.00
38514;DHT22;24282;48.400;10.808;2024-02-23T00:37:18;8.90;77.70
38514;DHT22;24282;48.400;10.808;2024-02-23T00:39:44;8.80;77.90
38514;DHT22;24282;48.400;10.808;2024-02-23T00:42:09;8.80;78.00
38514;DHT22;24282;48.400;10.808;2024-02-23T00:44:35;8.70;77.40
38514;DHT22;24282;48.400;10.808;2024-02-23T00:47:01;8.70;77.70
38514;DHT22;24282;48.400;10.808;2024-02-23T00:49:29;8.70;77.30
38514;DHT22;24282;48.400;10.808;2024-02-23T00:51:55;8.60;77.40
38514;DHT22;24282;48.400;10.808;2024-02-23T00:54:21;8.60;76.80
38514;DHT22;24282;48.400;10.808;2024-02-23T00:56:47;8.60;76.30
38514;DHT22;24282;48.400;10.808;2024-02-23T00:59:13;8.60;75.80
38514;DHT22;24282;48.400;10.808;2024-02-23T01:01:38;8.50;75.40
38514;DHT22;24282;48.400;10.808;2024-02-23T01:04:04;8.40;76.60
38514;DHT22;24282;48.400;10.808;2024-02-23T01:06:30;8.50;75.80
38514;DHT22;24282;48.400;10.808;2024-02-23T01:08:56;8.50;75.80
38514;DHT22;24282;48.400;10.808;2024-02-23T01:11:21;8.50;75.10
38514;DHT22;24282;48.400;10.808;2024-02-23T01:13:47;8.50;74.70
38514;DHT22;24282;48.400;10.808;2024-02-23T01:16:13;8.50;74.50
38514;DHT22;24282;48.400;10.808;2024-02-23T01:18:39;8.40;74.60
38514;DHT22;24282;48.400;10.808;2024-02-23T01:21:04;8.40;74.70
38514;DHT22;24282;48.400;10.808;2024-02-23T01:23:30;8.40;73.80
38514;DHT22;24282;48.400;10.808;2024-02-23T01:25:56;8.40;74.80
38514;DHT22;24282;48.400;10.808;2024-02-23T01:28:24;8.40;74.30
38514;DHT22;24282;48.400;10.808;2024-02-23T01:30:49;8.40;74.30
38514;DHT22;24282;48.400;10.808;2024-02-23T01:33:15;8.40;73.80
38514;DHT22;24282;48.400;10.808;2024-02-23T01:35:41;8.40;74.10
38514;DHT22;24282;48.400;10.808;2024-02-23T01:38:07;8.40;74.20
38514;DHT22;24282;48.400;10.808;2024-02-23T01:40:33;8.40;73.30
38514;DHT22;24282;48.400;10.808;2024-02-23T01:43:05;8.40;73.30
38514;DHT22;24282;48.400;10.808;2024-02-23T01:45:31;8.30;73.80
38514;DHT22;24282;48.400;10.808;2024-02-23T01:48:01;8.30;73.90
38514;DHT22;24282;48.400;10.808;2024-02-23T01:50:27;8.30;73.00
38514;DHT22;24282;48.400;10.808;2024-02-23T01:52:53;8.30;72.70
38514;DHT22;24282;48.400;10.808;2024-02-23T01:55:20;8.20;73.40
38514;DHT22;24282;48.400;10.808;2024-02-23T01:57:47;8.30;73.50
38514;DHT22;24282;48.400;10.808;2024-02-23T02:00:16;8.10;75.00
38514;DHT22;24282;48.400;10.808;2024-02-23T02:02:48;8.00;75.30
38514;DHT22;24282;48.400;10.808;2024-02-23T02:05:15;7.70;76.40
38514;DHT22;24282;48.400;10.808;2024-02-23T02:07:41;7.50;77.70
38514;DHT22;24282;48.400;10.808;2024-02-23T02:10:09;7.20;78.00
38514;DHT22;24282;48.400;10.808;2024-02-23T02:12:35;7.10;78.60
38514;DHT22;24282;48.400;10.808;2024-02-23T02:15:01;6.90;79.60
38514;DHT22;24282;48.400;10.808;2024-02-23T02:17:27;6.90;79.30
38514;DHT22;24282;48.400;10.808;2024-02-23T02:19:53;6.90;79.20
38514;DHT22;24282;48.400;10.808;2024-02-23T02:22:19;6.80;79.80
38514;DHT22;24282;48.400;10.808;2024-02-23T02:24:45;6.70;79.70
38514;DHT22;24282;48.400;10.808;2024-02-23T02:27:12;6.60;80.60
38514;DHT22;24282;48.400;10.808;2024-02-23T02:29:38;6.50;80.70
38514;DHT22;24282;48.400;10.808;2024-02-23T02:32:04;6.60;80.30
38514;DHT22;24282;48.400;10.808;2024-02-23T02:34:30;6.60;80.50
38514;DHT22;24282;48.400;10.808;2024-02-23T02:36:56;6.60;80.40
38514;DHT22;24282;48.400;10.808;2024-02-23T02:39:21;6.60;79.50
38514;DHT22;24282;48.400;10.808;2024-02-23T02:41:50;6.40;80.20
38514;DHT22;24282;48.400;10.808;2024-02-23T02:44:16;6.40;80.70
38514;DHT22;24282;48.400;10.808;2024-02-23T02:46:42;6.40;80.40
38514;DHT22;24282;48.400;10.808;2024-02-23T02:49:08;6.40;81.30
38514;DHT22;24282;48.400;10.808;2024-02-23T02:51:34;6.40;81.20
38514;DHT22;24282;48.400;10.808;2024-02-23T02:54:00;6.40;80.60
38514;DHT22;24282;48.400;10.808;2024-02-23T02:56:26;6.40;80.80
38514;DHT22;24282;48.400;10.808;2024-02-23T02:58:52;6.40;80.90
38514;DHT22;24282;48.400;10.808;2024-02-23T03:01:17;6.40;81.30
38514;DHT22;24282;48.400;10.808;2024-02-23T03:03:43;6.40;80.30
38514;DHT22;24282;48.400;10.808;2024-02-23T03:06:09;6.40;80.10
38514;DHT22;24282;48.400;10.808;2024-02-23T03:08:35;6.40;80.40
38514;DHT22;24282;48.400;10.808;2024-02-23T03:11:00;6.40;81.00
38514;DHT22;24282;48.400;10.808;2024-02-23T03:13:26;6.40;81.10
38514;DHT22;24282;48.400;10.808;2024-02-23T03:15:52;6.40;81.30
38514;DHT22;24282;48.400;10.808;2024-02-23T03:18:17;6.40;81.80
38514;DHT22;24282;48.400;10.808;2024-02-23T03:20:43;6.40;82.00
38514;DHT22;24282;48.400;10.808;2024-02-23T03:23:10;6.40;81.60
38514;DHT22;24282;48.400;10.808;2024-02-23T03:25:36;6.40;81.80
38514;DHT22;24282;48.400;10.808;2024-02-23T03:28:01;6.40;82.30
38514;DHT22;24282;48.400;10.808;2024-02-23T03:30:27;6.30;82.10
38514;DHT22;24282;48.400;10.808;2024-02-23T03:32:53;6.30;82.00
38514;DHT22;24282;48.400;10.808;2024-02-23T03:35:18;6.30;82.10
38514;DHT22;24282;48.400;10.808;2024-02-23T03:37:44;6.20;82.30
38514;DHT22;24282;48.400;10.808;2024-02-23T03:40:10;6.30;82.90
38514;DHT22;24282;48.400;10.808;2024-02-23T03:42:36;6.40;82.00
38514;DHT22;24282;48.400;10.808;2024-02-23T03:45:03;6.40;81.80
38514;DHT22;24282;48.400;10.808;2024-02-23T03:47:29;6.40;81.70
38514;DHT22;24282;48.400;10.808;2024-02-23T03:49:55;6.40;81.60
38514;DHT22;24282;48.400;10.808;2024-02-23T03:52:21;6.40;81.20
38514;DHT22;24282;48.400;10.808;2024-02-23T03:54:47;6.40;81.50
38514;DHT22;24282;48.400;10.808;2024-02-23T03:57:12;6.30;81.80
38514;DHT22;24282;48.400;10.808;2024-02-23T03:59:38;6.30;82.20
38514;DHT22;24282;48.400;10.808;2024-02-23T04:02:04;6.30;82.40
38514;DHT22;24282;48.400;10.808;2024-02-23T04:04:30;6.30;82.30
38514;DHT22;24282;48.400;10.808;2024-02-23T04:06:55;6.30;82.40
38514;DHT22;24282;48.400;10.808;2024-02-23T04:09:21;6.20;82.40
38514;DHT22;24282;48.400;10.808;2024-02-23T04:11:48;6.20;82.80
38514;DHT22;24282;48.400;10.808;2024-02-23T04:14:14;6.20;83.20
38514;DHT22;24282;48.400;10.808;2024-02-23T04:16:40;6.20;83.20
38514;DHT22;24282;48.400;10.808;2024-02-23T04:19:05;6.20;82.90
38514;DHT22;24282;48.400;10.808;2024-02-23T04:21:31;6.20;82.90
38514;DHT22;24282;48.400;10.808;2024-02-23T04:23:57;6.20;83.20
38514;DHT22;24282;48.400;10.808;2024-02-23T04:26:23;6.20;83.30
38514;DHT22;24282;48.400;10.808;2024-02-23T04:28:49;6.20;83.10
38514;DHT22;24282;48.400;10.808;2024-02-23T04:31:14;6.20;83.10
38514;DHT22;24282;48.400;10.808;2024-02-23T04:33:40;6.20;83.10
38514;DHT22;24282;48.400;10.808;2024-02-23T04:36:06;6.20;83.30
38514;DHT22;24282;48.400;10.808;2024-02-23T04:38:33;6.20;83.40
38514;DHT22;24282;48.400;10.808;2024-02-23T04:41:03;6.10;83.40
38514;DHT22;24282;48.400;10.808;2024-02-23T04:43:29;6.10;83.60
38514;DHT22;24282;48.400;10.808;2024-02-23T04:45:55;6.10;83.60
38514;DHT22;24282;48.400;10.808;2024-02-23T04:48:21;6.10;83.80
38514;DHT22;24282;48.400;10.808;2024-02-23T04:50:46;6.10;83.50
38514;DHT22;24282;48.400;10.808;2024-02-23T04:53:12;6.10;83.70
38514;DHT22;24282;48.400;10.808;2024-02-23T04:55:38;6.20;82.80
38514;DHT22;24282;48.400;10.808;2024-02-23T04:58:06;6.20;82.00
38514;DHT22;24282;48.400;10.808;2024-02-23T05:00:31;6.20;81.80
38514;DHT22;24282;48.400;10.808;2024-02-23T05:02:59;6.20;81.70
38514;DHT22;24282;48.400;10.808;2024-02-23T05:05:25;6.20;82.00
38514;DHT22;24282;48.400;10.808;2024-02-23T05:07:51;6.20;82.30
38514;DHT22;24282;48.400;10.808;2024-02-23T05:10:16;6.10;81.80
38514;DHT22;24282;48.400;10.808;2024-02-23T05:12:42;6.20;81.50
38514;DHT22;24282;48.400;10.808;2024-02-23T05:15:08;6.20;81.40
38514;DHT22;24282;48.400;10.808;2024-02-23T05:17:34;6.20;80.80
38514;DHT22;24282;48.400;10.808;2024-02-23T05:20:00;6.20;80.40
38514;DHT22;24282;48.400;10.808;2024-02-23T05:22:26;6.20;80.60
38514;DHT22;24282;48.400;10.808;2024-02-23T05:24:51;6.10;80.70
38514;DHT22;24282;48.400;10.808;2024-02-23T05:27:17;6.10;80.80
38514;DHT22;24282;48.400;10.808;2024-02-23T05:29:43;6.10;81.10
38514;DHT22;24282;48.400;10.808;2024-02-23T05:32:08;6.10;81.10
38514;DHT22;24282;48.400;10.808;2024-02-23T05:34:34;6.10;81.10
38514;DHT22;24282;48.400;10.808;2024-02-23T05:37:01;6.10;80.70
38514;DHT22;24282;48.400;10.808;2024-02-23T05:39:27;6.00;80.50
38514;DHT22;24282;48.400;10.808;2024-02-23T05:41:53;6.00;80.70
38514;DHT22;24282;48.400;10.808;2024-02-23T05:44:18;6.10;81.00
38514;DHT22;24282;48.400;10.808;2024-02-23T05:46:44;6.00;81.50
38514;DHT22;24282;48.400;10.808;2024-02-23T05:49:11;6.00;82.10
38514;DHT22;24282;48.400;10.808;2024-02-23T05:51:37;6.00;82.30
38514;DHT22;24282;48.400;10.808;2024-02-23T05:54:03;6.00;81.80
38514;DHT22;24282;48.400;10.808;2024-02-23T05:56:29;6.00;81.40
38514;DHT22;24282;48.400;10.808;2024-02-23T05:58:54;6.10;81.10
38514;DHT22;24282;48.400;10.808;2024-02-23T06:01:20;6.10;81.60
38514;DHT22;24282;48.400;10.808;2024-02-23T06:03:46;6.00;81.70
38514;DHT22;24282;48.400;10.808;2024-02-23T06:06:12;5.90;81.90
38514;DHT22;24282;48.400;10.808;2024-02-23T06:08:38;6.00;82.20
38514;DHT22;24282;48.400;10.808;2024-02-23T06:11:04;5.90;82.30
38514;DHT22;24282;48.400;10.808;2024-02-23T06:13:33;5.90;82.40
38514;DHT22;24282;48.400;10.808;2024-02-23T06:16:02;6.00;81.80
38514;DHT22;24282;48.400;10.808;2024-02-23T06:18:28;5.90;81.50
38514;DHT22;24282;48.400;10.808;2024-02-23T06:20:54;5.90;81.60
38514;DHT22;24282;48.400;10.808;2024-02-23T06:23:20;6.00;81.90
38514;DHT22;24282;48.400;10.808;2024-02-23T06:25:47;5.90;82.10
38514;DHT22;24282;48.400;10.808;2024-02-23T06:28:13;5.90;82.30
38514;DHT22;24282;48.400;10.808;2024-02-23T06:30:39;5.90;82.50
38514;DHT22;24282;48.400;10.808;2024-02-23T06:33:05;5.90;82.80
38514;DHT22;24282;48.400;10.808;2024-02-23T06:35:32;5.90;82.80
38514;DHT22;24282;48.400;10.808;2024-02-23T06:37:57;5.90;83.20
38514;DHT22;24282;48.400;10.808;2024-02-23T06:40:23;5.90;83.50
38514;DHT22;24282;48.400;10.808;2024-02-23T06:42:49;5.90;83.60
38514;DHT22;24282;48.400;10.808;2024-02-23T06:45:15;5.90;83.50
38514;DHT22;24282;48.400;10.808;2024-02-23T06:47:44;5.90;83.50
38514;DHT22;24282;48.400;10.808;2024-02-23T06:50:09;5.90;83.60
38514;DHT22;24282;48.400;10.808;2024-02-23T06:52:35;5.80;83.60
38514;DHT22;24282;48.400;10.808;2024-02-23T06:55:03;5.90;83.70
38514;DHT22;24282;48.400;10.808;2024-02-23T06:57:28;5.90;84.00
38514;DHT22;24282;48.400;10.808;2024-02-23T06:59:56;5.90;84.20
38514;DHT22;24282;48.400;10.808;2024-02-23T07:02:22;5.90;84.40
38514;DHT22;24282;48.400;10.808;2024-02-23T07:04:47;5.90;84.20
38514;DHT22;24282;48.400;10.808;2024-02-23T07:07:13;5.90;83.80
38514;DHT22;24282;48.400;10.808;2024-02-23T07:09:39;5.90;83.70
38514;DHT22;24282;48.400;10.808;2024-02-23T07:12:05;5.90;83.60
38514;DHT22;24282;48.400;10.808;2024-02-23T07:14:31;5.90;82.70
38514;DHT22;24282;48.400;10.808;2024-02-23T07:16:57;6.00;82.70
38514;DHT22;24282;48.400;10.808;2024-02-23T07:19:22;6.00;81.50
38514;DHT22;24282;48.400;10.808;2024-02-23T07:21:48;6.00;81.20
38514;DHT22;24282;48.400;10.808;2024-02-23T07:24:14;6.00;81.20
38514;DHT22;24282;48.400;10.808;2024-02-23T07:26:40;6.00;81.20
38514;DHT22;24282;48.400;10.808;2024-02-23T07:29:06;6.00;81.00
38514;DHT22;24282;48.400;10.808;2024-02-23T07:31:32;6.10;80.70
38514;DHT22;24282;48.400;10.808;2024-02-23T07:33:58;6.10;80.70
38514;DHT22;24282;48.400;10.808;2024-02-23T07:36:24;6.10;80.80
38514;DHT22;24282;48.400;10.808;2024-02-23T07:38:49;6.10;81.50
38514;DHT22;24282;48.400;10.808;2024-02-23T07:41:15;6.10;81.40
38514;DHT22;24282;48.400;10.808;2024-02-23T07:43:43;6.10;81.30
38514;DHT22;24282;48.400;10.808;2024-02-23T07:46:09;6.20;81.50
38514;DHT22;24282;48.400;10.808;2024-02-23T07:48:35;6.10;81.70
38514;DHT22;24282;48.400;10.808;2024-02-23T07:51:03;6.20;81.60
38514;DHT22;24282;48.400;10.808;2024-02-23T07:53:29;6.10;81.70
38514;DHT22;24282;48.400;10.808;2024-02-23T07:55:58;6.10;81.60
38514;DHT22;24282;48.400;10.808;2024-02-23T07:58:25;6.10;81.60
38514;DHT22;24282;48.400;10.808;2024-02-23T08:00:53;6.10;81.50
38514;DHT22;24282;48.400;10.808;2024-02-23T08:03:19;6.10;81.10
38514;DHT22;24282;48.400;10.808;2024-02-23T08:05:45;6.20;81.40
38514;DHT22;24282;48.400;10.808;2024-02-23T08:08:11;6.20;81.30
38514;DHT22;24282;48.400;10.808;2024-02-23T08:10:36;6.20;80.90
38514;DHT22;24282;48.400;10.808;2024-02-23T08:13:02;6.20;80.90
38514;DHT22;24282;48.400;10.808;2024-02-23T08:15:28;6.20;80.50
38514;DHT22;24282;48.400;10.808;2024-02-23T08:17:54;6.20;80.20
38514;DHT22;24282;48.400;10.808;2024-02-23T08:20:19;6.20;80.20
38514;DHT22;24282;48.400;10.808;2024-02-23T08:22:45;6.30;80.10
38514;DHT22;24282;48.400;10.808;2024-02-23T08:25:11;6.30;80.30
38514;DHT22;24282;48.400;10.808;2024-02-23T08:27:37;6.30;80.20
38514;DHT22;24282;48.400;10.808;2024-02-23T08:30:04;6.30;80.20
38514;DHT22;24282;48.400;10.808;2024-02-23T08:32:30;6.30;80.10
38514;DHT22;24282;48.400;10.808;2024-02-23T08:34:55;6.40;79.60
38514;DHT22;24282;48.400;10.808;2024-02-23T08:37:25;6.30;79.40
38514;DHT22;24282;48.400;10.808;2024-02-23T08:39:52;6.40;79.10
38514;DHT22;24282;48.400;10.808;2024-02-23T08:42:18;6.40;78.90
38514;DHT22;24282;48.400;10.808;2024-02-23T08:44:43;6.40;78.70
38514;DHT22;24282;48.400;10.808;2024-02-23T08:47:09;6.40;78.60
38514;DHT22;24282;48.400;10.808;2024-02-23T08:49:35;6.40;78.50
38514;DHT22;24282;48.400;10.808;2024-02-23T08:52:00;6.40;78.30
38514;DHT22;24282;48.400;10.808;2024-02-23T08:54:27;6.40;78.40
38514;DHT22;24282;48.400;10.808;2024-02-23T08:56:53;6.40;78.30
38514;DHT22;24282;48.400;10.808;2024-02-23T08:59:19;6.40;78.20
38514;DHT22;24282;48.400;10.808;2024-02-23T09:01:44;6.50;77.90
38514;DHT22;24282;48.400;10.808;2024-02-23T09:04:12;6.50;77.70
38514;DHT22;24282;48.400;10.808;2024-02-23T09:06:38;6.50;77.70
38514;DHT22;24282;48.400;10.808;2024-02-23T09:09:04;6.50;77.80
38514;DHT22;24282;48.400;10.808;2024-02-23T09:11:30;6.40;77.80
38514;DHT22;24282;48.400;10.808;2024-02-23T09:13:55;6.50;77.10
38514;DHT22;24282;48.400;10.808;2024-02-23T09:16:21;6.50;77.30
38514;DHT22;24282;48.400;10.808;2024-02-23T09:18:50;6.50;77.10
38514;DHT22;24282;48.400;10.808;2024-02-23T09:21:16;6.50;77.10
38514;DHT22;24282;48.400;10.808;2024-02-23T09:23:42;6.50;77.20
38514;DHT22;24282;48.400;10.808;2024-02-23T09:26:10;6.50;77.40
38514;DHT22;24282;48.400;10.808;2024-02-23T09:28:37;6.50;77.10
38514;DHT22;24282;48.400;10.808;2024-02-23T09:31:03;6.50;77.00
38514;DHT22;24282;48.400;10.808;2024-02-23T09:33:30;6.50;77.20
38514;DHT22;24282;48.400;10.808;2024-02-23T09:35:56;6.50;76.50
38514;DHT22;24282;48.400;10.808;2024-02-23T09:38:22;6.50;76.70
38514;DHT22;24282;48.400;10.808;2024-02-23T09:40:51;6.50;77.00
38514;DHT22;24282;48.400;10.808;2024-02-23T09:43:17;6.50;77.00
38514;DHT22;24282;48.400;10.808;2024-02-23T09:45:44;6.50;76.90
38514;DHT22;24282;48.400;10.808;2024-02-23T09:48:10;6.50;76.50
38514;DHT22;24282;48.400;10.808;2024-02-23T09:50:37;6.50;76.40
38514;DHT22;24282;48.400;10.808;2024-02-23T09:53:07;6.50;76.40
38514;DHT22;24282;48.400;10.808;2024-02-23T09:55:35;6.60;76.90
38514;DHT22;24282;48.400;10.808;2024-02-23T09:58:02;6.50;76.60
38514;DHT22;24282;48.400;10.808;2024-02-23T10:00:29;6.60;75.80
38514;DHT22;24282;48.400;10.808;2024-02-23T10:02:56;6.60;76.00
38514;DHT22;24282;48.400;10.808;2024-02-23T10:05:23;6.60;76.30
38514;DHT22;24282;48.400;10.808;2024-02-23T10:07:54;6.60;76.00
38514;DHT22;24282;48.400;10.808;2024-02-23T10:10:35;6.60;76.00
38514;DHT22;24282;48.400;10.808;2024-02-23T10:13:01;6.60;76.10
38514;DHT22;24282;48.400;10.808;2024-02-23T10:15:29;6.70;75.60
38514;DHT22;24282;48.400;10.808;2024-02-23T10:17:56;6.70;76.00
38514;DHT22;24282;48.400;10.808;2024-02-23T10:20:22;6.70;76.10
38514;DHT22;24282;48.400;10.808;2024-02-23T10:22:48;6.70;75.80
38514;DHT22;24282;48.400;10.808;2024-02-23T10:25:14;6.70;75.30
38514;DHT22;24282;48.400;10.808;2024-02-23T10:27:43;6.70;74.80
38514;DHT22;24282;48.400;10.808;2024-02-23T10:30:10;6.70;75.00
38514;DHT22;24282;48.400;10.808;2024-02-23T10:32:38;6.70;74.90
38514;DHT22;24282;48.400;10.808;2024-02-23T10:35:14;6.70;74.80
38514;DHT22;24282;48.400;10.808;2024-02-23T10:37:43;6.80;73.90
38514;DHT22;24282;48.400;10.808;2024-02-23T10:40:12;6.80;72.90
38514;DHT22;24282;48.400;10.808;2024-02-23T10:42:39;6.80;73.10
38514;DHT22;24282;48.400;10.808;2024-02-23T10:45:07;6.80;73.60
38514;DHT22;24282;48.400;10.808;2024-02-23T10:47:36;6.80;73.20
38514;DHT22;24282;48.400;10.808;2024-02-23T10:50:03;6.80;73.30
38514;DHT22;24282;48.400;10.808;2024-02-23T10:52:31;6.80;72.70
38514;DHT22;24282;48.400;10.808;2024-02-23T10:54:57;6.80;72.00
38514;DHT22;24282;48.400;10.808;2024-02-23T10:57:26;6.80;71.60
38514;DHT22;24282;48.400;10.808;2024-02-23T10:59:52;6.80;71.80
38514;DHT22;24282;48.400;10.808;2024-02-23T11:02:19;6.80;72.20
38514;DHT22;24282;48.400;10.808;2024-02-23T11:04:47;6.80;73.10
38514;DHT22;24282;48.400;10.808;2024-02-23T11:07:19;6.80;72.80
38514;DHT22;24282;48.400;10.808;2024-02-23T11:10:00;6.80;72.60
38514;DHT22;24282;48.400;10.808;2024-02-23T11:12:29;6.90;72.00
38514;DHT22;24282;48.400;10.808;2024-02-23T11:14:59;6.80;72.20
38514;DHT22;24282;48.400;10.808;2024-02-23T11:17:30;6.80;71.30
38514;DHT22;24282;48.400;10.808;2024-02-23T11:19:56;6.90;71.50
38514;DHT22;24282;48.400;10.808;2024-02-23T11:22:26;6.80;71.50
38514;DHT22;24282;48.400;10.808;2024-02-23T11:24:52;6.90;70.70
38514;DHT22;24282;48.400;10.808;2024-02-23T11:27:17;6.90;69.90
38514;DHT22;24282;48.400;10.808;2024-02-23T11:29:46;6.90;69.80
38514;DHT22;24282;48.400;10.808;2024-02-23T11:32:16;6.90;69.60
38514;DHT22;24282;48.400;10.808;2024-02-23T11:34:54;6.90;69.40
38514;DHT22;24282;48.400;10.808;2024-02-23T11:37:22;6.90;69.30
38514;DHT22;24282;48.400;10.808;2024-02-23T11:39:48;6.90;69.20
38514;DHT22;24282;48.400;10.808;2024-02-23T11:42:14;6.90;69.40
38514;DHT22;24282;48.400;10.808;2024-02-23T11:44:40;6.90;69.60
38514;DHT22;24282;48.400;10.808;2024-02-23T11:47:07;6.80;69.70
38514;DHT22;24282;48.400;10.808;2024-02-23T11:49:33;6.90;70.40
38514;DHT22;24282;48.400;10.808;2024-02-23T11:51:58;6.90;71.10
38514;DHT22;24282;48.400;10.808;2024-02-23T11:54:25;6.90;70.10
38514;DHT22;24282;48.400;10.808;2024-02-23T11:56:51;7.00;69.30
38514;DHT22;24282;48.400;10.808;2024-02-23T11:59:21;6.90;70.50
38514;DHT22;24282;48.400;10.808;2024-02-23T12:01:48;6.90;70.50
38514;DHT22;24282;48.400;10.808;2024-02-23T12:04:14;7.00;69.60
38514;DHT22;24282;48.400;10.808;2024-02-23T12:06:42;6.90;69.40
38514;DHT22;24282;48.400;10.808;2024-02-23T12:09:08;6.90;70.50
38514;DHT22;24282;48.400;10.808;2024-02-23T12:11:34;6.90;70.70
38514;DHT22;24282;48.400;10.808;2024-02-23T12:14:01;6.90;70.90
38514;DHT22;24282;48.400;10.808;2024-02-23T12:16:28;6.90;71.50
38514;DHT22;24282;48.400;10.808;2024-02-23T12:18:55;6.90;72.10
38514;DHT22;24282;48.400;10.808;2024-02-23T12:21:23;7.00;71.40
38514;DHT22;24282;48.400;10.808;2024-02-23T12:23:50;7.00;71.70
38514;DHT22;24282;48.400;10.808;2024-02-23T12:26:17;7.00;72.00
38514;DHT22;24282;48.400;10.808;2024-02-23T12:28:44;7.00;72.20
38514;DHT22;24282;48.400;10.808;2024-02-23T12:31:10;7.00;72.80
38514;DHT22;24282;48.400;10.808;2024-02-23T12:33:37;7.00;72.10
38514;DHT22;24282;48.400;10.808;2024-02-23T12:36:05;7.00;72.20
38514;DHT22;24282;48.400;10.808;2024-02-23T12:38:31;7.00;72.20
38514;DHT22;24282;48.400;10.808;2024-02-23T12:40:57;7.00;72.30
38514;DHT22;24282;48.400;10.808;2024-02-23T12:43:23;7.10;72.20
38514;DHT22;24282;48.400;10.808;2024-02-23T12:45:56;7.00;71.90
38514;DHT22;24282;48.400;10.808;2024-02-23T12:48:22;7.00;72.30
38514;DHT22;24282;48.400;10.808;2024-02-23T12:50:49;7.00;72.40
38514;DHT22;24282;48.400;10.808;2024-02-23T12:56:10;7.10;73.50
38514;DHT22;24282;48.400;10.808;2024-02-23T12:58:40;7.00;72.80
38514;DHT22;24282;48.400;10.808;2024-02-23T13:01:06;7.10;73.20
38514;DHT22;24282;48.400;10.808;2024-02-23T13:03:36;7.10;73.80
38514;DHT22;24282;48.400;10.808;2024-02-23T13:06:03;7.10;73.80
38514;DHT22;24282;48.400;10.808;2024-02-23T13:08:29;7.10;73.90
38514;DHT22;24282;48.400;10.808;2024-02-23T13:10:56;7.10;73.50
38514;DHT22;24282;48.400;10.808;2024-02-23T13:13:22;7.20;73.90
38514;DHT22;24282;48.400;10.808;2024-02-23T13:15:50;7.20;73.60
38514;DHT22;24282;48.400;10.808;2024-02-23T13:18:16;7.10;73.40
38514;DHT22;24282;48.400;10.808;2024-02-23T13:20:41;7.20;73.80
38514;DHT22;24282;48.400;10.808;2024-02-23T13:23:11;7.10;73.90
38514;DHT22;24282;48.400;10.808;2024-02-23T13:25:40;7.10;74.20
38514;DHT22;24282;48.400;10.808;2024-02-23T13:28:07;7.20;74.40
38514;DHT22;24282;48.400;10.808;2024-02-23T13:30:34;7.20;74.10
38514;DHT22;24282;48.400;10.808;2024-02-23T13:33:01;7.20;74.40
38514;DHT22;24282;48.400;10.808;2024-02-23T13:35:27;7.20;74.50
38514;DHT22;24282;48.400;10.808;2024-02-23T13:37:53;7.20;74.20
38514;DHT22;24282;48.400;10.808;2024-02-23T13:40:19;7.20;74.30
38514;DHT22;24282;48.400;10.808;2024-02-23T13:42:45;7.20;75.10
38514;DHT22;24282;48.400;10.808;2024-02-23T13:45:15;7.20;74.90
38514;DHT22;24282;48.400;10.808;2024-02-23T13:47:41;7.20;74.50
38514;DHT22;24282;48.400;10.808;2024-02-23T13:50:08;7.20;74.50
38514;DHT22;24282;48.400;10.808;2024-02-23T13:52:34;7.20;74.90
38514;DHT22;24282;48.400;10.808;2024-02-23T13:55:00;7.20;74.70
38514;DHT22;24282;48.400;10.808;2024-02-23T13:57:26;7.20;74.60
38514;DHT22;24282;48.400;10.808;2024-02-23T13:59:52;7.20;74.40
38514;DHT22;24282;48.400;10.808;2024-02-23T14:02:25;7.20;73.90
38514;DHT22;24282;48.400;10.808;2024-02-23T14:04:51;7.20;73.80
38514;DHT22;24282;48.400;10.808;2024-02-23T14:07:16;7.20;74.10
38514;DHT22;24282;48.400;10.808;2024-02-23T14:09:43;7.20;74.40
38514;DHT22;24282;48.400;10.808;2024-02-23T14:12:09;7.20;74.70
38514;DHT22;24282;48.400;10.808;2024-02-23T14:14:35;7.20;74.60
38514;DHT22;24282;48.400;10.808;2024-02-23T14:17:00;7.20;74.20
38514;DHT22;24282;48.400;10.808;2024-02-23T14:19:26;7.20;73.90
38514;DHT22;24282;48.400;10.808;2024-02-23T14:21:52;7.20;72.60
38514;DHT22;24282;48.400;10.808;2024-02-23T14:24:18;7.30;72.50
38514;DHT22;24282;48.400;10.808;2024-02-23T14:26:43;7.20;72.00
38514;DHT22;24282;48.400;10.808;2024-02-23T14:29:09;7.20;72.10
38514;DHT22;24282;48.400;10.808;2024-02-23T14:31:35;7.30;71.40
38514;DHT22;24282;48.400;10.808;2024-02-23T14:34:01;7.20;71.00
38514;DHT22;24282;48.400;10.808;2024-02-23T14:36:27;7.20;71.50
38514;DHT22;24282;48.400;10.808;2024-02-23T14:38:53;7.20;71.40
38514;DHT22;24282;48.400;10.808;2024-02-23T14:41:18;7.20;70.70
38514;DHT22;24282;48.400;10.808;2024-02-23T14:43:44;7.20;70.60
38514;DHT22;24282;48.400;10.808;2024-02-23T14:46:10;7.20;70.70
38514;DHT22;24282;48.400;10.808;2024-02-23T14:48:35;7.20;70.80
38514;DHT22;24282;48.400;10.808;2024-02-23T14:51:01;7.20;70.40
38514;DHT22;24282;48.400;10.808;2024-02-23T14:53:30;7.20;69.80
38514;DHT22;24282;48.400;10.808;2024-02-23T14:55:55;7.20;69.80
38514;DHT22;24282;48.400;10.808;2024-02-23T14:58:21;7.20;69.70
38514;DHT22;24282;48.400;10.808;2024-02-23T15:00:47;7.20;69.80
38514;DHT22;24282;48.400;10.808;2024-02-23T15:03:13;7.20;70.20
38514;DHT22;24282;48.400;10.808;2024-02-23T15:05:39;7.20;70.40
38514;DHT22;24282;48.400;10.808;2024-02-23T15:08:06;7.20;70.50
38514;DHT22;24282;48.400;10.808;2024-02-23T15:10:33;7.20;70.60
38514;DHT22;24282;48.400;10.808;2024-02-23T15:12:59;7.20;70.80
38514;DHT22;24282;48.400;10.808;2024-02-23T15:15:25;7.20;71.00
38514;DHT22;24282;48.400;10.808;2024-02-23T15:17:51;7.20;70.90
38514;DHT22;24282;48.400;10.808;2024-02-23T15:20:18;7.20;70.80
38514;DHT22;24282;48.400;10.808;2024-02-23T15:22:44;7.20;71.40
38514;DHT22;24282;48.400;10.808;2024-02-23T15:25:12;7.20;71.40
38514;DHT22;24282;48.400;10.808;2024-02-23T15:27:38;7.20;71.20